Time;durP1;ratioP1;P1;durP2;ratioP2;P2;SDS_P1;SDS_P2;PMS_P1;PMS_P2;Temp;Humidity;BMP_temperature;BMP_pressure;BME280_temperature;BME280_humidity;BME280_pressure;Samples;Min_cycle;Max_cycle;Signal;HPM_P1;HPM_P2
2022/01/16 00:04:34;;;;;;;18.40;5.90;;;;;;;;;;5018853;28;20037;-57
2022/01/16 00:07:03;;;;;;;14.68;4.78;;;;;;;;;;5017338;28;20030;-57
2022/01/16 00:09:29;;;;;;;12.88;4.43;;;;;;;;;;5023376;28;20032;-55
2022/01/16 00:11:59;;;;;;;12.40;5.03;;;;;;;;;;5034006;28;20428;-51
2022/01/16 00:14:25;;;;;;;14.90;4.97;;;;;;;;;;5033201;28;20029;-51
2022/01/16 00:16:51;;;;;;;18.55;6.30;;;;;;;;;;5033906;28;20120;-57
2022/01/16 00:19:18;;;;;;;15.10;5.30;;;;;;;;;;5025583;28;20029;-53
2022/01/16 00:21:44;;;;;;;15.63;5.22;;;;;;;;;;5031601;28;20033;-52
2022/01/16 00:24:11;;;;;;;18.08;4.82;;;;;;;;;;5024986;28;20033;-54
2022/01/16 00:26:38;;;;;;;22.70;4.53;;;;;;;;;;5031256;28;20490;-51
2022/01/16 00:29:07;;;;;;;16.58;5.13;;;;;;;;;;5026427;28;20064;-53
2022/01/16 00:31:33;;;;;;;15.02;5.13;;;;;;;;;;5030717;28;20045;-51
2022/01/16 00:33:59;;;;;;;14.40;5.32;;;;;;;;;;5026088;28;20022;-53
2022/01/16 00:36:25;;;;;;;18.65;5.00;;;;;;;;;;5031738;28;20121;-53
2022/01/16 00:38:53;;;;;;;11.93;4.40;;;;;;;;;;5033999;28;20037;-51
2022/01/16 00:41:20;;;;;;;13.05;4.03;;;;;;;;;;5025900;28;20033;-52
2022/01/16 00:43:47;;;;;;;12.43;4.95;;;;;;;;;;5032587;28;20057;-54
2022/01/16 00:46:13;;;;;;;13.65;5.30;;;;;;;;;;5024881;28;20029;-53
2022/01/16 00:48:39;;;;;;;10.75;4.43;;;;;;;;;;5032434;28;20600;-51
2022/01/16 00:51:05;;;;;;;15.52;4.13;;;;;;;;;;5031048;28;20037;-53
2022/01/16 00:53:31;;;;;;;9.38;3.70;;;;;;;;;;5031371;28;20719;-53
2022/01/16 00:55:57;;;;;;;7.20;3.30;;;;;;;;;;5028666;28;20030;-52
2022/01/16 00:58:23;;;;;;;12.52;3.20;;;;;;;;;;5031131;28;20030;-56
2022/01/16 01:00:49;;;;;;;12.70;3.60;;;;;;;;;;5030014;28;20037;-56
2022/01/16 01:03:15;;;;;;;11.43;4.13;;;;;;;;;;5022918;28;20100;-57
2022/01/16 01:05:41;;;;;;;7.47;3.28;;;;;;;;;;5032561;28;20029;-57
2022/01/16 01:08:08;;;;;;;18.08;4.75;;;;;;;;;;5033019;28;20490;-57
2022/01/16 01:10:38;;;;;;;11.32;4.20;;;;;;;;;;5027791;28;20034;-53
2022/01/16 01:13:10;;;;;;;8.05;3.72;;;;;;;;;;5032581;28;20037;-55
2022/01/16 01:15:46;;;;;;;14.18;4.55;;;;;;;;;;5031371;28;20033;-55
2022/01/16 01:18:12;;;;;;;11.82;4.80;;;;;;;;;;5031766;28;20515;-53
2022/01/16 01:20:41;;;;;;;13.70;4.13;;;;;;;;;;5030259;28;20029;-53
2022/01/16 01:23:07;;;;;;;13.20;4.30;;;;;;;;;;5022412;28;20041;-55
2022/01/16 01:25:33;;;;;;;13.38;4.75;;;;;;;;;;5024778;28;20053;-55
2022/01/16 01:27:59;;;;;;;13.68;5.30;;;;;;;;;;5024657;28;20036;-56
2022/01/16 01:30:25;;;;;;;17.20;5.60;;;;;;;;;;5021827;28;20018;-55
2022/01/16 01:32:54;;;;;;;17.73;5.85;;;;;;;;;;5019249;28;20055;-55
2022/01/16 01:35:20;;;;;;;28.65;8.35;;;;;;;;;;5029452;28;20123;-54
2022/01/16 01:37:46;;;;;;;9.93;4.47;;;;;;;;;;5027288;28;20080;-52
2022/01/16 01:40:20;;;;;;;9.82;5.20;;;;;;;;;;5030444;28;20122;-52
2022/01/16 01:51:06;;;;;;;17.48;4.45;;;;;;;;;;5023489;28;20041;-52
2022/01/16 01:53:33;;;;;;;10.85;3.95;;;;;;;;;;5028919;28;20025;-52
2022/01/16 01:55:59;;;;;;;14.88;4.53;;;;;;;;;;5025490;28;20111;-52
2022/01/16 01:58:25;;;;;;;19.20;5.28;;;;;;;;;;5022116;28;20654;-57
2022/01/16 02:00:51;;;;;;;11.68;5.50;;;;;;;;;;5027523;28;20041;-54
2022/01/16 02:03:29;;;;;;;14.80;4.40;;;;;;;;;;5028567;28;20371;-55
2022/01/16 02:05:55;;;;;;;19.88;6.00;;;;;;;;;;5017534;28;20026;-55
2022/01/16 02:08:21;;;;;;;22.15;5.97;;;;;;;;;;5025580;28;20029;-54
2022/01/16 02:10:47;;;;;;;14.27;4.75;;;;;;;;;;5023124;28;20384;-51
2022/01/16 02:13:24;;;;;;;14.25;5.57;;;;;;;;;;5035143;28;20029;-50
2022/01/16 02:34:41;;;;;;;15.88;5.32;;;;;;;;;;5034033;28;20459;-54
2022/01/16 02:37:11;;;;;;;11.13;4.47;;;;;;;;;;5027324;28;20045;-54
2022/01/16 02:39:45;;;;;;;14.20;4.57;;;;;;;;;;5027246;28;20116;-56
2022/01/16 02:42:13;;;;;;;21.05;5.55;;;;;;;;;;5025081;28;20060;-56
2022/01/16 02:44:47;;;;;;;13.57;4.13;;;;;;;;;;5031753;28;20030;-51
2022/01/16 02:47:18;;;;;;;15.65;5.68;;;;;;;;;;5035261;28;20021;-56
2022/01/16 02:49:47;;;;;;;16.35;6.13;;;;;;;;;;5025572;28;20026;-56
2022/01/16 02:52:14;;;;;;;18.98;5.00;;;;;;;;;;5020273;28;21934;-56
2022/01/16 02:54:41;;;;;;;10.85;4.43;;;;;;;;;;5028814;28;20025;-52
2022/01/16 02:57:08;;;;;;;17.00;6.07;;;;;;;;;;5031245;28;20029;-57
2022/01/16 02:59:35;;;;;;;11.07;4.47;;;;;;;;;;5031777;28;20033;-56
2022/01/16 03:02:01;;;;;;;17.83;4.95;;;;;;;;;;5026726;28;20038;-55
2022/01/16 03:04:27;;;;;;;13.45;5.47;;;;;;;;;;5029748;28;20036;-54
2022/01/16 03:06:54;;;;;;;12.23;5.03;;;;;;;;;;5034161;28;20044;-50
2022/01/16 03:09:21;;;;;;;18.83;5.90;;;;;;;;;;5026085;28;20042;-54
2022/01/16 03:11:48;;;;;;;18.85;4.97;;;;;;;;;;5031434;28;20107;-54
2022/01/16 03:14:16;;;;;;;21.60;5.15;;;;;;;;;;5032893;28;20373;-53
2022/01/16 03:16:46;;;;;;;14.65;5.30;;;;;;;;;;5031720;28;20029;-51
2022/01/16 03:22:02;;;;;;;12.77;4.95;;;;;;;;;;5028054;28;20491;-51
2022/01/16 03:24:29;;;;;;;16.75;5.35;;;;;;;;;;5040146;28;20030;-52
2022/01/16 03:26:56;;;;;;;27.58;6.47;;;;;;;;;;5026182;28;20017;-54
2022/01/16 03:29:23;;;;;;;17.75;5.13;;;;;;;;;;5029372;28;20482;-55
2022/01/16 03:31:49;;;;;;;14.95;4.97;;;;;;;;;;5027580;28;20025;-50
2022/01/16 03:34:15;;;;;;;11.57;4.30;;;;;;;;;;5035261;28;20421;-51
2022/01/16 03:36:41;;;;;;;20.27;4.93;;;;;;;;;;5022676;28;20045;-53
2022/01/16 03:39:07;;;;;;;18.23;4.35;;;;;;;;;;5015054;28;20113;-51
2022/01/16 03:41:34;;;;;;;17.25;4.72;;;;;;;;;;5022408;28;20497;-53
2022/01/16 03:44:01;;;;;;;24.92;5.03;;;;;;;;;;5029507;28;20036;-53
2022/01/16 03:46:34;;;;;;;14.73;5.18;;;;;;;;;;5025331;28;20369;-55
2022/01/16 03:49:00;;;;;;;17.40;5.10;;;;;;;;;;5029645;28;20350;-51
2022/01/16 03:51:25;;;;;;;17.20;5.43;;;;;;;;;;5025631;28;20080;-54
2022/01/16 03:53:51;;;;;;;13.02;5.10;;;;;;;;;;5024959;28;20033;-56
2022/01/16 03:56:18;;;;;;;22.80;5.47;;;;;;;;;;5022810;28;20446;-56
2022/01/16 03:58:44;;;;;;;16.08;4.88;;;;;;;;;;5027356;28;20458;-55
2022/01/16 04:01:09;;;;;;;17.30;5.18;;;;;;;;;;5031516;28;20408;-57
2022/01/16 04:03:35;;;;;;;17.92;6.40;;;;;;;;;;5023661;28;20025;-55
2022/01/16 04:06:02;;;;;;;19.17;5.40;;;;;;;;;;5021697;28;20034;-55
2022/01/16 04:08:28;;;;;;;23.23;5.70;;;;;;;;;;5026992;28;20450;-53
2022/01/16 04:10:54;;;;;;;18.50;6.40;;;;;;;;;;5026136;28;20071;-56
2022/01/16 04:13:21;;;;;;;15.32;5.90;;;;;;;;;;5027529;28;20147;-51
2022/01/16 04:15:47;;;;;;;26.48;4.55;;;;;;;;;;5024725;28;20025;-52
2022/01/16 04:18:13;;;;;;;16.85;6.22;;;;;;;;;;5030813;28;20184;-52
2022/01/16 04:20:39;;;;;;;15.93;4.88;;;;;;;;;;5031734;28;20026;-50
2022/01/16 04:23:06;;;;;;;21.52;5.80;;;;;;;;;;5027538;28;20025;-54
2022/01/16 04:25:33;;;;;;;16.45;5.70;;;;;;;;;;5028701;28;20432;-53
2022/01/16 04:27:59;;;;;;;16.35;5.68;;;;;;;;;;5033294;28;20036;-54
2022/01/16 04:30:25;;;;;;;16.25;5.93;;;;;;;;;;5028493;28;20053;-55
2022/01/16 04:32:51;;;;;;;17.40;5.18;;;;;;;;;;5022390;28;20040;-55
2022/01/16 04:35:17;;;;;;;22.85;6.00;;;;;;;;;;5023365;28;20046;-55
2022/01/16 04:37:43;;;;;;;21.45;5.95;;;;;;;;;;5024377;28;20033;-55
2022/01/16 04:40:10;;;;;;;13.25;5.60;;;;;;;;;;5030131;28;20022;-54
2022/01/16 04:45:21;;;;;;;25.23;5.70;;;;;;;;;;5028277;28;20040;-50
2022/01/16 04:47:50;;;;;;;21.73;6.80;;;;;;;;;;5025137;28;20034;-53
2022/01/16 04:50:16;;;;;;;18.92;5.85;;;;;;;;;;5030295;28;20026;-53
2022/01/16 04:52:45;;;;;;;13.63;6.32;;;;;;;;;;5018679;28;20033;-53
2022/01/16 04:55:12;;;;;;;22.13;6.70;;;;;;;;;;5030970;28;20311;-53
2022/01/16 04:57:38;;;;;;;15.50;5.68;;;;;;;;;;5022860;28;20036;-51
2022/01/16 05:00:09;;;;;;;13.00;5.70;;;;;;;;;;5029618;28;20040;-56
2022/01/16 05:02:35;;;;;;;23.33;6.35;;;;;;;;;;5030057;28;20504;-56
2022/01/16 05:05:01;;;;;;;18.55;5.43;;;;;;;;;;5025932;28;20030;-55
2022/01/16 05:07:27;;;;;;;24.52;6.20;;;;;;;;;;5027626;28;20151;-55
2022/01/16 05:09:53;;;;;;;26.80;6.68;;;;;;;;;;5032129;28;20021;-55
2022/01/16 05:12:28;;;;;;;26.23;6.22;;;;;;;;;;5027876;28;20117;-53
2022/01/16 05:17:39;;;;;;;25.60;6.38;;;;;;;;;;5026048;28;20163;-53
2022/01/16 05:20:05;;;;;;;14.93;6.57;;;;;;;;;;5027346;28;20120;-54
2022/01/16 05:22:31;;;;;;;20.38;5.93;;;;;;;;;;5024299;28;20248;-55
2022/01/16 05:24:57;;;;;;;14.95;5.30;;;;;;;;;;5031130;28;20365;-53
2022/01/16 05:27:23;;;;;;;11.25;5.65;;;;;;;;;;5029642;28;20096;-55
2022/01/16 05:29:48;;;;;;;18.75;6.05;;;;;;;;;;5027598;28;20034;-55
2022/01/16 05:32:16;;;;;;;17.83;5.22;;;;;;;;;;5018686;28;20045;-54
2022/01/16 05:34:42;;;;;;;18.08;5.28;;;;;;;;;;5026958;28;20119;-53
2022/01/16 05:37:08;;;;;;;19.85;5.47;;;;;;;;;;5017426;28;20109;-51
2022/01/16 05:39:35;;;;;;;14.32;5.45;;;;;;;;;;5023919;28;20117;-55
2022/01/16 05:42:01;;;;;;;25.40;6.30;;;;;;;;;;5013012;28;20029;-51
2022/01/16 05:44:27;;;;;;;18.08;5.43;;;;;;;;;;5024225;28;20068;-55
2022/01/16 05:46:53;;;;;;;19.73;5.97;;;;;;;;;;5031276;28;20026;-52
2022/01/16 05:49:19;;;;;;;18.40;5.05;;;;;;;;;;5028777;28;20030;-53
2022/01/16 05:51:45;;;;;;;15.93;5.13;;;;;;;;;;5023804;28;20029;-54
2022/01/16 05:54:11;;;;;;;20.85;6.28;;;;;;;;;;5028944;28;20033;-54
2022/01/16 05:56:37;;;;;;;22.60;5.35;;;;;;;;;;5017584;28;20025;-51
2022/01/16 05:59:03;;;;;;;17.15;5.68;;;;;;;;;;5026502;28;20168;-54
2022/01/16 06:01:29;;;;;;;21.10;5.72;;;;;;;;;;5027574;28;20034;-54
2022/01/16 06:03:55;;;;;;;31.80;6.00;;;;;;;;;;5020106;28;20057;-55
2022/01/16 06:06:21;;;;;;;15.45;5.15;;;;;;;;;;5016955;28;20076;-53
2022/01/16 06:08:48;;;;;;;10.52;4.45;;;;;;;;;;5029518;28;20029;-55
2022/01/16 06:11:14;;;;;;;19.00;5.40;;;;;;;;;;5023505;28;20030;-56
2022/01/16 06:13:40;;;;;;;15.73;5.60;;;;;;;;;;5028918;28;20055;-55
2022/01/16 06:16:06;;;;;;;15.55;5.07;;;;;;;;;;5027959;28;20033;-53
2022/01/16 06:18:32;;;;;;;12.65;5.82;;;;;;;;;;5019074;28;20034;-55
2022/01/16 06:20:58;;;;;;;17.58;4.88;;;;;;;;;;5030739;28;20061;-51
2022/01/16 06:23:24;;;;;;;13.00;4.97;;;;;;;;;;5022334;28;20033;-54
2022/01/16 06:25:54;;;;;;;16.50;4.95;;;;;;;;;;5020230;28;20673;-55
2022/01/16 06:28:20;;;;;;;13.55;6.18;;;;;;;;;;5027689;28;20072;-50
2022/01/16 06:30:46;;;;;;;15.70;5.60;;;;;;;;;;5016006;28;20049;-53
2022/01/16 06:33:12;;;;;;;10.57;4.28;;;;;;;;;;5014674;28;20064;-55
2022/01/16 06:35:38;;;;;;;19.25;5.78;;;;;;;;;;5023562;28;20049;-56
2022/01/16 06:38:05;;;;;;;13.15;5.05;;;;;;;;;;5021486;28;20037;-54
2022/01/16 06:40:31;;;;;;;17.52;6.60;;;;;;;;;;5024988;28;20116;-54
2022/01/16 06:42:57;;;;;;;20.05;6.30;;;;;;;;;;5040587;28;20477;-51
2022/01/16 06:45:23;;;;;;;12.93;5.53;;;;;;;;;;5030660;28;20032;-51
2022/01/16 06:47:50;;;;;;;15.38;5.47;;;;;;;;;;5025083;28;20041;-51
2022/01/16 06:50:16;;;;;;;14.90;6.38;;;;;;;;;;5015772;28;20022;-51
2022/01/16 06:52:42;;;;;;;15.43;6.05;;;;;;;;;;5030218;28;20829;-53
2022/01/16 06:55:08;;;;;;;21.60;6.43;;;;;;;;;;5024056;28;20040;-51
2022/01/16 06:57:34;;;;;;;16.60;6.20;;;;;;;;;;5024842;28;20030;-51
2022/01/16 07:00:00;;;;;;;12.80;5.28;;;;;;;;;;5022822;28;20022;-50
2022/01/16 07:02:27;;;;;;;20.20;6.70;;;;;;;;;;5020699;28;20533;-52
2022/01/16 07:04:53;;;;;;;16.70;5.80;;;;;;;;;;5029607;28;20103;-51
2022/01/16 07:07:19;;;;;;;17.02;6.03;;;;;;;;;;5017725;28;20033;-51
2022/01/16 07:09:46;;;;;;;20.55;6.93;;;;;;;;;;5030510;28;20038;-55
2022/01/16 07:12:12;;;;;;;15.38;6.20;;;;;;;;;;5029982;28;20084;-56
2022/01/16 07:14:38;;;;;;;20.00;6.50;;;;;;;;;;5034084;28;20038;-55
2022/01/16 07:17:04;;;;;;;22.40;6.70;;;;;;;;;;5026361;28;20048;-55
2022/01/16 07:19:30;;;;;;;23.15;6.22;;;;;;;;;;5031670;28;20037;-54
2022/01/16 07:21:56;;;;;;;15.80;5.28;;;;;;;;;;5023019;28;20120;-55
2022/01/16 07:24:22;;;;;;;16.98;6.15;;;;;;;;;;5028702;28;20033;-51
2022/01/16 07:26:48;;;;;;;17.98;5.78;;;;;;;;;;5023732;28;20040;-56
2022/01/16 07:29:14;;;;;;;15.80;7.00;;;;;;;;;;5016544;28;20401;-51
2022/01/16 07:31:40;;;;;;;15.98;5.93;;;;;;;;;;5020674;28;20029;-50
2022/01/16 07:34:06;;;;;;;17.27;6.43;;;;;;;;;;5024678;28;20041;-52
2022/01/16 07:36:32;;;;;;;17.33;6.28;;;;;;;;;;5029314;28;20025;-51
2022/01/16 07:38:58;;;;;;;16.38;8.80;;;;;;;;;;5025574;28;20021;-51
2022/01/16 07:41:24;;;;;;;17.35;6.90;;;;;;;;;;5029644;28;20049;-51
2022/01/16 07:43:50;;;;;;;16.55;7.85;;;;;;;;;;5027048;28;20029;-53
2022/01/16 07:46:20;;;;;;;20.33;8.15;;;;;;;;;;5028951;28;20124;-50
2022/01/16 07:48:46;;;;;;;15.95;6.63;;;;;;;;;;5029517;28;20032;-55
2022/01/16 07:51:12;;;;;;;23.30;7.68;;;;;;;;;;5031273;28;20117;-52
2022/01/16 07:53:38;;;;;;;30.08;7.80;;;;;;;;;;5019597;28;20021;-53
2022/01/16 07:56:04;;;;;;;18.92;8.40;;;;;;;;;;5029144;28;20033;-54
2022/01/16 07:58:30;;;;;;;19.02;8.93;;;;;;;;;;5021553;28;20373;-54
2022/01/16 08:00:56;;;;;;;18.15;8.95;;;;;;;;;;5031327;28;20053;-51
2022/01/16 08:03:22;;;;;;;22.30;8.65;;;;;;;;;;5033729;28;20025;-52
2022/01/16 08:05:48;;;;;;;23.25;8.40;;;;;;;;;;5032050;28;20116;-52
2022/01/16 08:08:15;;;;;;;28.67;9.52;;;;;;;;;;5030698;28;20024;-55
2022/01/16 08:10:41;;;;;;;19.08;8.70;;;;;;;;;;5027971;28;20067;-55
2022/01/16 08:13:07;;;;;;;26.98;10.30;;;;;;;;;;5029588;28;20025;-52
2022/01/16 08:15:33;;;;;;;23.48;9.25;;;;;;;;;;5030792;28;20036;-53
2022/01/16 08:17:59;;;;;;;24.30;9.85;;;;;;;;;;5025611;28;20120;-55
2022/01/16 08:20:25;;;;;;;23.25;10.07;;;;;;;;;;5025015;28;20037;-55
2022/01/16 08:22:51;;;;;;;21.23;9.90;;;;;;;;;;5029900;28;20440;-56
2022/01/16 08:25:18;;;;;;;17.70;9.20;;;;;;;;;;5033700;28;20122;-55
2022/01/16 08:27:44;;;;;;;27.50;11.07;;;;;;;;;;5023334;28;20061;-55
2022/01/16 08:30:10;;;;;;;25.02;11.18;;;;;;;;;;5024646;28;20108;-55
2022/01/16 08:32:38;;;;;;;29.40;12.00;;;;;;;;;;5025333;28;20044;-55
2022/01/16 08:35:04;;;;;;;22.60;9.90;;;;;;;;;;5026552;28;20144;-51
2022/01/16 08:37:30;;;;;;;23.00;10.48;;;;;;;;;;5023259;28;20038;-55
2022/01/16 08:39:57;;;;;;;24.90;10.80;;;;;;;;;;5021985;28;20029;-51
2022/01/16 08:42:23;;;;;;;20.42;9.30;;;;;;;;;;5023193;28;20408;-53
2022/01/16 08:44:51;;;;;;;26.77;11.43;;;;;;;;;;5021964;28;20037;-51
2022/01/16 08:47:19;;;;;;;25.60;12.65;;;;;;;;;;5030420;28;20045;-51
2022/01/16 08:49:44;;;;;;;27.67;11.07;;;;;;;;;;5029336;28;20071;-53
2022/01/16 08:52:11;;;;;;;25.70;12.05;;;;;;;;;;5021675;28;20400;-51
2022/01/16 08:54:37;;;;;;;27.08;10.80;;;;;;;;;;5030385;28;20029;-50
2022/01/16 08:57:03;;;;;;;27.85;10.93;;;;;;;;;;5023508;28;20033;-51
2022/01/16 08:59:29;;;;;;;24.58;11.20;;;;;;;;;;5029667;28;20046;-51
2022/01/16 09:01:55;;;;;;;25.23;11.10;;;;;;;;;;5023499;28;20479;-53
2022/01/16 09:04:21;;;;;;;25.13;10.38;;;;;;;;;;5021567;28;20116;-52
2022/01/16 09:06:47;;;;;;;26.20;11.48;;;;;;;;;;5030460;28;20401;-54
2022/01/16 09:09:13;;;;;;;24.10;10.40;;;;;;;;;;5023869;28;20033;-55
2022/01/16 09:11:39;;;;;;;27.98;12.00;;;;;;;;;;5026967;28;20139;-56
2022/01/16 09:14:05;;;;;;;24.98;11.32;;;;;;;;;;5022152;28;20036;-56
2022/01/16 09:16:33;;;;;;;27.92;11.48;;;;;;;;;;5027719;28;20048;-56
2022/01/16 09:18:59;;;;;;;22.20;10.35;;;;;;;;;;5029077;28;20034;-54
2022/01/16 09:21:25;;;;;;;26.30;11.45;;;;;;;;;;5018601;28;20073;-55
2022/01/16 09:23:51;;;;;;;28.30;11.35;;;;;;;;;;5016956;28;20064;-56
2022/01/16 09:26:18;;;;;;;23.70;10.93;;;;;;;;;;5028000;28;20035;-55
2022/01/16 09:28:44;;;;;;;22.52;10.82;;;;;;;;;;5019335;28;20033;-55
2022/01/16 09:31:10;;;;;;;25.30;11.60;;;;;;;;;;5025603;28;20033;-51
2022/01/16 09:33:36;;;;;;;23.60;11.82;;;;;;;;;;5031077;28;20025;-53
2022/01/16 09:36:03;;;;;;;27.42;11.20;;;;;;;;;;5030111;28;20068;-55
2022/01/16 09:38:30;;;;;;;30.23;11.43;;;;;;;;;;5022230;28;20144;-51
2022/01/16 09:40:56;;;;;;;27.63;11.63;;;;;;;;;;5024325;28;20059;-55
2022/01/16 09:43:22;;;;;;;25.70;10.75;;;;;;;;;;5031733;28;20037;-53
2022/01/16 09:45:49;;;;;;;22.08;10.55;;;;;;;;;;5032014;28;20029;-52
2022/01/16 09:48:18;;;;;;;25.55;10.80;;;;;;;;;;5017455;28;20465;-53
2022/01/16 09:50:44;;;;;;;22.35;9.85;;;;;;;;;;5025109;28;20028;-54
2022/01/16 09:53:12;;;;;;;27.05;11.32;;;;;;;;;;5029455;28;20025;-51
2022/01/16 09:55:38;;;;;;;22.38;10.70;;;;;;;;;;5030623;28;20473;-51
2022/01/16 09:58:04;;;;;;;24.13;10.75;;;;;;;;;;5029351;28;20060;-52
2022/01/16 10:00:30;;;;;;;23.17;10.68;;;;;;;;;;5026019;28;20477;-51
2022/01/16 10:02:56;;;;;;;19.70;10.60;;;;;;;;;;5028683;28;20037;-55
2022/01/16 10:05:23;;;;;;;21.35;10.32;;;;;;;;;;5020010;28;20041;-52
2022/01/16 10:07:49;;;;;;;19.55;9.95;;;;;;;;;;5025220;28;20025;-55
2022/01/16 10:10:16;;;;;;;23.65;10.60;;;;;;;;;;5024856;28;20437;-56
2022/01/16 10:12:49;;;;;;;24.65;10.48;;;;;;;;;;5027421;28;20095;-56
2022/01/16 10:15:17;;;;;;;25.20;12.18;;;;;;;;;;5031364;28;20037;-56
2022/01/16 10:17:44;;;;;;;25.90;11.75;;;;;;;;;;5028042;28;20033;-54
2022/01/16 10:20:10;;;;;;;27.80;12.65;;;;;;;;;;5019745;28;20036;-56
2022/01/16 10:22:47;;;;;;;24.63;11.35;;;;;;;;;;5034267;28;20115;-55
2022/01/16 10:25:14;;;;;;;23.95;11.55;;;;;;;;;;5030346;28;20053;-56
2022/01/16 10:27:41;;;;;;;24.98;11.18;;;;;;;;;;5027558;28;20070;-53
2022/01/16 10:30:12;;;;;;;27.10;12.82;;;;;;;;;;5027250;28;20036;-55
2022/01/16 10:32:39;;;;;;;25.42;11.85;;;;;;;;;;5017617;28;20022;-55
2022/01/16 10:35:17;;;;;;;29.50;12.80;;;;;;;;;;5018799;28;20053;-57
2022/01/16 10:37:44;;;;;;;24.85;11.02;;;;;;;;;;5020464;28;20030;-55
2022/01/16 10:40:14;;;;;;;27.33;12.32;;;;;;;;;;5028894;28;20113;-51
2022/01/16 10:42:40;;;;;;;22.73;10.57;;;;;;;;;;5021218;28;20032;-55
2022/01/16 10:45:11;;;;;;;28.05;11.90;;;;;;;;;;5019916;28;20018;-56
2022/01/16 10:47:39;;;;;;;26.45;11.40;;;;;;;;;;5026098;28;20033;-55
2022/01/16 10:50:13;;;;;;;28.98;12.55;;;;;;;;;;5035075;28;20032;-54
2022/01/16 10:52:47;;;;;;;25.58;11.77;;;;;;;;;;5026626;28;20032;-56
2022/01/16 10:55:12;;;;;;;26.52;11.93;;;;;;;;;;5034474;28;20414;-51
2022/01/16 10:57:39;;;;;;;27.48;12.13;;;;;;;;;;5028878;28;20048;-54
2022/01/16 11:00:09;;;;;;;26.92;11.48;;;;;;;;;;5024707;28;20427;-51
2022/01/16 11:02:35;;;;;;;25.92;11.38;;;;;;;;;;5024974;28;20025;-56
2022/01/16 11:05:21;;;;;;;25.50;11.50;;;;;;;;;;5020391;28;20053;-54
2022/01/16 11:07:55;;;;;;;26.02;11.50;;;;;;;;;;5030260;28;20063;-57
2022/01/16 11:10:31;;;;;;;29.35;12.32;;;;;;;;;;5025823;28;20107;-56
2022/01/16 11:12:59;;;;;;;28.75;11.90;;;;;;;;;;5024308;28;20037;-57
2022/01/16 11:15:25;;;;;;;25.25;11.55;;;;;;;;;;5031143;28;20105;-53
2022/01/16 11:17:52;;;;;;;24.85;11.18;;;;;;;;;;5018579;28;20437;-55
2022/01/16 11:20:22;;;;;;;24.52;11.70;;;;;;;;;;5029384;28;20028;-56
2022/01/16 11:22:57;;;;;;;24.30;10.70;;;;;;;;;;5023590;28;20045;-55
2022/01/16 11:25:31;;;;;;;24.30;10.52;;;;;;;;;;5031364;28;20469;-56
2022/01/16 11:28:00;;;;;;;24.73;10.70;;;;;;;;;;5033521;28;20068;-54
2022/01/16 11:30:26;;;;;;;27.88;11.10;;;;;;;;;;5031435;28;20100;-53
2022/01/16 11:32:52;;;;;;;25.48;12.00;;;;;;;;;;5028854;28;20053;-51
2022/01/16 11:35:18;;;;;;;24.40;11.00;;;;;;;;;;5033425;28;20049;-54
2022/01/16 11:37:44;;;;;;;27.88;10.98;;;;;;;;;;5034399;28;20037;-54
2022/01/16 11:40:31;;;;;;;20.90;10.25;;;;;;;;;;5033791;28;20030;-59
2022/01/16 11:43:15;;;;;;;24.63;12.05;;;;;;;;;;5021047;28;20025;-58
2022/01/16 11:46:04;;;;;;;24.55;10.95;;;;;;;;;;5033262;28;20072;-60
2022/01/16 11:48:34;;;;;;;21.67;10.23;;;;;;;;;;5026705;28;20079;-58
2022/01/16 11:51:01;;;;;;;24.17;11.63;;;;;;;;;;5027117;28;20026;-57
2022/01/16 11:53:45;;;;;;;25.42;11.98;;;;;;;;;;5028316;28;20061;-57
2022/01/16 11:56:30;;;;;;;20.40;10.52;;;;;;;;;;5029195;28;20034;-59
2022/01/16 11:59:14;;;;;;;23.45;10.73;;;;;;;;;;5028179;28;20484;-61
2022/01/16 12:01:44;;;;;;;25.88;12.02;;;;;;;;;;5019380;28;20037;-60
2022/01/16 12:04:31;;;;;;;29.42;12.45;;;;;;;;;;5028309;28;20461;-59
2022/01/16 12:06:57;;;;;;;25.27;11.35;;;;;;;;;;5032784;28;20025;-61
2022/01/16 12:12:13;;;;;;;27.73;12.25;;;;;;;;;;5033806;28;20594;-61
2022/01/16 12:14:53;;;;;;;25.63;12.55;;;;;;;;;;5028350;28;20022;-61
2022/01/16 12:17:34;;;;;;;23.38;11.32;;;;;;;;;;5016438;28;20037;-61
2022/01/16 12:20:22;;;;;;;27.17;11.90;;;;;;;;;;5025712;28;20028;-61
2022/01/16 12:22:59;;;;;;;29.25;12.40;;;;;;;;;;5030574;28;20038;-61
2022/01/16 12:25:28;;;;;;;27.77;12.82;;;;;;;;;;5033088;28;20108;-60
2022/01/16 12:28:00;;;;;;;28.40;12.63;;;;;;;;;;5026679;28;20033;-60
2022/01/16 12:30:32;;;;;;;27.58;10.88;;;;;;;;;;5027740;28;20029;-59
2022/01/16 12:33:11;;;;;;;30.48;12.63;;;;;;;;;;5026612;28;20025;-60
2022/01/16 12:35:40;;;;;;;25.13;12.00;;;;;;;;;;5027951;28;20046;-60
2022/01/16 12:38:06;;;;;;;26.65;12.02;;;;;;;;;;5026110;28;20901;-59
2022/01/16 12:40:32;;;;;;;25.95;11.52;;;;;;;;;;5030297;28;20036;-59
2022/01/16 12:43:02;;;;;;;24.73;11.60;;;;;;;;;;5029196;28;20029;-60
2022/01/16 12:45:29;;;;;;;28.48;12.15;;;;;;;;;;5027811;28;20120;-60
2022/01/16 12:47:57;;;;;;;26.52;12.40;;;;;;;;;;5024914;28;20069;-58
2022/01/16 12:50:23;;;;;;;26.40;11.65;;;;;;;;;;5030587;28;20025;-61
2022/01/16 12:52:49;;;;;;;27.15;12.02;;;;;;;;;;5032538;28;20026;-60
2022/01/16 12:55:15;;;;;;;30.10;11.88;;;;;;;;;;5032553;28;20087;-61
2022/01/16 12:57:41;;;;;;;28.27;11.35;;;;;;;;;;5029454;28;20021;-61
2022/01/16 13:00:10;;;;;;;27.73;12.30;;;;;;;;;;5032689;28;20032;-60
2022/01/16 13:02:37;;;;;;;31.38;12.90;;;;;;;;;;5027883;28;20429;-60
2022/01/16 13:05:03;;;;;;;32.38;12.48;;;;;;;;;;5030307;28;20052;-60
2022/01/16 13:07:29;;;;;;;34.95;13.65;;;;;;;;;;5027982;28;20062;-60
2022/01/16 13:09:56;;;;;;;35.97;15.48;;;;;;;;;;5024359;28;20018;-60
2022/01/16 13:12:22;;;;;;;27.83;12.80;;;;;;;;;;5031845;28;20037;-60
2022/01/16 13:14:48;;;;;;;32.17;13.30;;;;;;;;;;5023150;28;20057;-60
2022/01/16 13:17:14;;;;;;;35.53;13.43;;;;;;;;;;5030062;28;20030;-60
2022/01/16 13:19:52;;;;;;;34.97;13.32;;;;;;;;;;5025913;28;20030;-60
2022/01/16 13:22:39;;;;;;;34.25;14.13;;;;;;;;;;5028892;28;20033;-60
2022/01/16 13:25:07;;;;;;;29.88;12.90;;;;;;;;;;5029217;28;20029;-60
2022/01/16 13:27:33;;;;;;;32.17;14.32;;;;;;;;;;5032715;28;20033;-60
2022/01/16 13:30:00;;;;;;;34.08;14.07;;;;;;;;;;5031651;28;20025;-60
2022/01/16 13:32:28;;;;;;;32.25;14.07;;;;;;;;;;5027884;28;20037;-59
2022/01/16 13:34:55;;;;;;;34.38;14.07;;;;;;;;;;5017843;28;20054;-60
2022/01/16 13:37:21;;;;;;;33.88;14.60;;;;;;;;;;5027753;28;20366;-60
2022/01/16 13:39:48;;;;;;;33.95;13.93;;;;;;;;;;5032401;28;20512;-59
2022/01/16 13:42:25;;;;;;;33.55;12.80;;;;;;;;;;5022687;28;20033;-59
2022/01/16 13:44:51;;;;;;;37.45;14.43;;;;;;;;;;5028012;28;20495;-60
2022/01/16 13:47:21;;;;;;;34.38;15.20;;;;;;;;;;5023525;28;20381;-60
2022/01/16 13:49:48;;;;;;;29.75;14.07;;;;;;;;;;5018304;28;20041;-61
2022/01/16 13:52:22;;;;;;;31.45;13.93;;;;;;;;;;5025513;28;20079;-60
2022/01/16 13:54:47;;;;;;;39.67;14.45;;;;;;;;;;5025626;28;20033;-61
2022/01/16 13:57:13;;;;;;;36.42;15.05;;;;;;;;;;5020926;28;20052;-59
2022/01/16 13:59:39;;;;;;;31.77;13.82;;;;;;;;;;5028463;28;20029;-59
2022/01/16 14:02:05;;;;;;;37.30;14.48;;;;;;;;;;5017334;28;20104;-60
2022/01/16 14:04:38;;;;;;;36.35;15.57;;;;;;;;;;5026109;28;20029;-60
2022/01/16 14:07:04;;;;;;;36.38;14.88;;;;;;;;;;5025004;28;20151;-58
2022/01/16 14:09:33;;;;;;;38.72;15.90;;;;;;;;;;5025101;28;20486;-60
2022/01/16 14:11:59;;;;;;;37.53;14.77;;;;;;;;;;5017187;28;20037;-60
2022/01/16 14:14:26;;;;;;;35.88;15.82;;;;;;;;;;5020428;28;20390;-58
2022/01/16 14:19:36;;;;;;;35.05;15.90;;;;;;;;;;5021509;28;20038;-60
2022/01/16 14:22:02;;;;;;;42.28;16.50;;;;;;;;;;5018538;28;20512;-60
2022/01/16 14:24:35;;;;;;;39.38;16.05;;;;;;;;;;5028250;28;20022;-59
2022/01/16 14:27:01;;;;;;;;;;;;;;;;;;5031415;28;20033;-59
2022/01/16 14:29:27;;;;;;;40.63;15.07;;;;;;;;;;5031424;28;19911;-61
2022/01/16 14:31:55;;;;;;;37.28;15.73;;;;;;;;;;5030468;28;20144;-61
2022/01/16 14:34:22;;;;;;;37.78;15.82;;;;;;;;;;5031181;28;20029;-61
2022/01/16 14:36:48;;;;;;;40.22;16.45;;;;;;;;;;5031003;28;20029;-61
2022/01/16 14:39:14;;;;;;;39.22;17.73;;;;;;;;;;5014235;28;20037;-60
2022/01/16 14:41:45;;;;;;;39.95;17.05;;;;;;;;;;5025657;28;20032;-60
2022/01/16 14:44:11;;;;;;;39.53;16.40;;;;;;;;;;5020586;28;20036;-60
2022/01/16 14:46:37;;;;;;;42.58;17.83;;;;;;;;;;5027362;28;20470;-60
2022/01/16 14:49:03;;;;;;;44.20;16.88;;;;;;;;;;5024381;28;20032;-60
2022/01/16 14:51:29;;;;;;;40.17;16.08;;;;;;;;;;5027495;28;20021;-61
2022/01/16 14:53:55;;;;;;;39.67;17.55;;;;;;;;;;5022623;28;20096;-60
2022/01/16 14:56:22;;;;;;;44.30;16.42;;;;;;;;;;5031649;28;20259;-60
2022/01/16 14:58:48;;;;;;;43.83;18.55;;;;;;;;;;5030196;28;20479;-60
2022/01/16 15:01:14;;;;;;;41.15;16.80;;;;;;;;;;5025436;28;20378;-61
2022/01/16 15:03:40;;;;;;;40.10;18.08;;;;;;;;;;5027804;28;20037;-59
2022/01/16 15:06:07;;;;;;;39.25;17.33;;;;;;;;;;5029705;28;20590;-59
2022/01/16 15:08:37;;;;;;;44.00;18.10;;;;;;;;;;5026808;28;20101;-60
2022/01/16 15:11:03;;;;;;;43.85;17.85;;;;;;;;;;5025797;28;20027;-59